createdAt,value
2018-07-15T00:00:46.593Z,15.59
2018-07-15T00:01:46.500Z,15.54
2018-07-15T00:02:46.414Z,15.54
2018-07-15T00:03:46.311Z,15.47
2018-07-15T00:04:46.225Z,15.49
2018-07-15T00:05:46.120Z,15.44
2018-07-15T00:06:46.024Z,15.54
2018-07-15T00:07:45.933Z,15.46
2018-07-15T00:08:45.832Z,15.43
2018-07-15T00:09:45.733Z,15.43
2018-07-15T00:10:45.633Z,15.37
2018-07-15T00:11:45.530Z,15.33
2018-07-15T00:12:45.442Z,15.36
2018-07-15T00:13:45.339Z,15.36
2018-07-15T00:14:45.252Z,15.35
2018-07-15T00:15:45.148Z,15.27
2018-07-15T00:16:45.054Z,15.27
2018-07-15T00:17:44.951Z,15.28
2018-07-15T00:18:44.864Z,15.24
2018-07-15T00:19:44.760Z,15.25
2018-07-15T00:20:44.668Z,15.22
2018-07-15T00:21:44.565Z,15.18
2018-07-15T00:22:44.469Z,15.17
2018-07-15T00:23:44.366Z,15.09
2018-07-15T00:24:44.282Z,15.14
2018-07-15T00:25:44.179Z,15.10
2018-07-15T00:26:44.083Z,15.15
2018-07-15T00:27:43.980Z,15.10
2018-07-15T00:28:43.888Z,15.09
2018-07-15T00:29:43.784Z,14.99
2018-07-15T00:30:43.697Z,15.02
2018-07-15T00:31:43.594Z,14.96
2018-07-15T00:32:43.502Z,14.88
2018-07-15T00:33:43.396Z,14.88
2018-07-15T00:34:43.310Z,14.96
2018-07-15T00:35:43.205Z,14.85
2018-07-15T00:36:43.117Z,14.88
2018-07-15T00:37:43.014Z,14.69
2018-07-15T00:38:42.919Z,14.79
2018-07-15T00:39:42.815Z,14.78
2018-07-15T00:40:42.728Z,14.70
2018-07-15T00:41:42.625Z,14.65
2018-07-15T00:42:42.527Z,14.54
2018-07-15T00:43:42.424Z,14.55
2018-07-15T00:44:42.337Z,14.58
2018-07-15T00:45:42.234Z,14.51
2018-07-15T00:46:42.147Z,14.63
2018-07-15T00:47:42.043Z,14.45
2018-07-15T00:48:41.953Z,14.40
2018-07-15T00:49:41.849Z,14.40
2018-07-15T00:50:41.753Z,14.40
2018-07-15T00:51:41.650Z,14.36
2018-07-15T00:52:41.558Z,14.29
2018-07-15T00:53:41.455Z,14.30
2018-07-15T00:54:41.368Z,14.20
2018-07-15T00:55:41.269Z,14.20
2018-07-15T00:56:41.176Z,14.14
2018-07-15T00:57:41.080Z,14.12
2018-07-15T00:58:40.970Z,14.11
2018-07-15T00:59:40.878Z,14.10
2018-07-15T01:00:40.774Z,14.10
2018-07-15T01:01:40.683Z,14.08
2018-07-15T01:02:40.575Z,14.10
2018-07-15T01:03:40.484Z,14.07
2018-07-15T01:04:40.385Z,14.00
2018-07-15T01:05:40.299Z,14.00
2018-07-15T01:06:40.187Z,13.95
2018-07-15T01:07:40.095Z,13.96
2018-07-15T01:08:39.993Z,13.95
2018-07-15T01:09:39.904Z,13.81
2018-07-15T01:10:39.807Z,13.81
2018-07-15T01:11:39.713Z,13.78
2018-07-15T01:12:39.604Z,13.71
2018-07-15T01:13:39.514Z,13.72
2018-07-15T01:14:39.414Z,13.72
2018-07-15T01:15:39.312Z,13.68
2018-07-15T01:16:39.221Z,13.63
2018-07-15T01:17:39.132Z,13.70
2018-07-15T01:18:39.027Z,13.62
2018-07-15T01:19:38.922Z,13.60
2018-07-15T01:20:38.833Z,13.59
2018-07-15T01:21:38.731Z,13.63
2018-07-15T01:22:38.636Z,13.56
2018-07-15T01:23:38.533Z,13.57
2018-07-15T01:24:38.438Z,13.56
2018-07-15T01:25:38.335Z,13.57
2018-07-15T01:26:38.238Z,13.56
2018-07-15T01:27:38.147Z,13.54
2018-07-15T01:28:38.042Z,13.44
2018-07-15T01:29:37.949Z,13.54
2018-07-15T01:30:37.853Z,13.49
2018-07-15T01:31:37.760Z,13.53
2018-07-15T01:32:37.655Z,13.46
2018-07-15T01:33:37.564Z,13.44
2018-07-15T01:34:37.456Z,13.44
2018-07-15T01:35:37.358Z,13.47
2018-07-15T01:36:37.268Z,13.54
2018-07-15T01:37:37.164Z,13.47
2018-07-15T01:38:37.068Z,13.52
2018-07-15T01:39:36.965Z,13.50
2018-07-15T01:40:36.880Z,13.50
2018-07-15T01:41:36.773Z,13.47
2018-07-15T01:42:36.686Z,13.52
2018-07-15T01:43:36.583Z,13.46
2018-07-15T01:44:36.474Z,13.42
2018-07-15T01:45:36.385Z,13.37
2018-07-15T01:46:36.283Z,13.38
2018-07-15T01:47:36.194Z,13.35
2018-07-15T01:48:36.104Z,13.31
2018-07-15T01:49:36.001Z,13.23
2018-07-15T01:50:35.893Z,13.31
2018-07-15T01:51:35.802Z,13.25
2018-07-15T01:52:35.701Z,13.20
2018-07-15T01:53:35.598Z,13.19
2018-07-15T01:54:35.503Z,13.12
2018-07-15T01:55:35.400Z,13.20
2018-07-15T01:56:35.302Z,13.19
2018-07-15T01:57:35.207Z,13.19
2018-07-15T01:58:35.109Z,13.19
2018-07-15T01:59:35.018Z,13.15
2018-07-15T02:00:34.911Z,13.18
2018-07-15T02:01:34.817Z,13.12
2018-07-15T02:02:34.718Z,13.08
2018-07-15T02:03:34.628Z,13.05
2018-07-15T02:04:34.526Z,13.12
2018-07-15T02:05:34.435Z,13.16
2018-07-15T02:06:34.327Z,13.05
2018-07-15T02:07:34.225Z,13.03
2018-07-15T02:08:34.138Z,13.08
2018-07-15T02:09:34.035Z,13.08
2018-07-15T02:10:33.939Z,13.11
2018-07-15T02:11:33.849Z,13.05
2018-07-15T02:12:33.732Z,13.08
2018-07-15T02:13:33.641Z,13.11
2018-07-15T02:14:33.541Z,13.05
2018-07-15T02:15:33.450Z,13.01
2018-07-15T02:16:33.344Z,13.01
2018-07-15T02:17:33.256Z,13.00
2018-07-15T02:18:33.155Z,12.93
2018-07-15T02:19:33.111Z,12.94
2018-07-15T02:20:32.958Z,12.93
2018-07-15T02:21:32.854Z,12.90
2018-07-15T02:22:32.761Z,12.91
2018-07-15T02:23:32.658Z,12.86
2018-07-15T02:24:32.561Z,12.86
2018-07-15T02:25:32.467Z,12.87
2018-07-15T02:26:32.359Z,12.93
2018-07-15T02:27:32.269Z,12.93
2018-07-15T02:28:32.168Z,12.93
2018-07-15T02:29:32.065Z,12.83
2018-07-15T02:30:31.978Z,12.91
2018-07-15T02:31:31.875Z,12.90
2018-07-15T02:32:31.778Z,12.90
2018-07-15T02:33:31.993Z,12.91
2018-07-15T02:34:31.575Z,12.93
2018-07-15T02:35:31.484Z,12.97
2018-07-15T02:36:31.402Z,12.91
2018-07-15T02:37:31.294Z,12.91
2018-07-15T02:38:31.190Z,12.95
2018-07-15T02:39:31.106Z,12.97
2018-07-15T02:40:30.994Z,12.98
2018-07-15T02:41:30.892Z,13.00
2018-07-15T02:42:30.796Z,13.05
2018-07-15T02:43:30.944Z,13.09
2018-07-15T02:44:30.600Z,13.01
2018-07-15T02:45:30.497Z,13.00
2018-07-15T02:46:30.397Z,12.98
2018-07-15T02:47:30.307Z,13.04
2018-07-15T02:48:30.202Z,13.00
2018-07-15T02:49:30.111Z,12.95
2018-07-15T02:50:30.013Z,12.87
2018-07-15T02:51:29.907Z,12.94
2018-07-15T02:52:29.826Z,12.98
2018-07-15T02:53:29.713Z,12.94
2018-07-15T02:54:29.616Z,12.93
2018-07-15T02:55:29.520Z,12.85
2018-07-15T02:56:29.410Z,12.93
2018-07-15T02:57:29.320Z,12.80
2018-07-15T02:58:29.221Z,12.76
2018-07-15T02:59:29.128Z,12.75
2018-07-15T03:00:29.027Z,12.80
2018-07-15T03:01:28.924Z,12.78
2018-07-15T03:02:28.834Z,12.79
2018-07-15T03:03:28.727Z,12.72
2018-07-15T03:04:28.650Z,12.76
2018-07-15T03:05:28.537Z,12.76
2018-07-15T03:06:28.426Z,12.76
2018-07-15T03:07:28.337Z,12.76
2018-07-15T03:08:28.246Z,12.75
2018-07-15T03:09:28.143Z,12.83
2018-07-15T03:10:28.044Z,12.83
2018-07-15T03:11:27.941Z,12.78
2018-07-15T03:12:27.846Z,12.83
2018-07-15T03:13:27.743Z,12.79
2018-07-15T03:14:27.645Z,12.78
2018-07-15T03:15:27.554Z,12.76
2018-07-15T03:16:27.448Z,12.82
2018-07-15T03:17:27.479Z,12.82
2018-07-15T03:18:27.250Z,12.78
2018-07-15T03:19:27.149Z,12.79
2018-07-15T03:20:27.062Z,12.79
2018-07-15T03:21:26.959Z,12.73
2018-07-15T03:22:26.867Z,12.78
2018-07-15T03:23:26.760Z,12.82
2018-07-15T03:24:26.667Z,12.76
2018-07-15T03:25:26.576Z,12.82
2018-07-15T03:26:26.465Z,12.75
2018-07-15T03:27:26.374Z,12.79
2018-07-15T03:28:26.267Z,12.79
2018-07-15T03:29:26.175Z,12.91
2018-07-15T03:30:26.076Z,12.95
2018-07-15T03:31:25.973Z,12.94
2018-07-15T03:32:25.885Z,12.97
2018-07-15T03:33:26.033Z,12.95
2018-07-15T03:34:25.674Z,13.01
2018-07-15T03:35:25.583Z,13.01
2018-07-15T03:36:25.482Z,13.04
2018-07-15T03:37:25.392Z,13.05
2018-07-15T03:38:25.286Z,13.12
2018-07-15T03:39:25.181Z,13.20
2018-07-15T03:40:25.091Z,13.25
2018-07-15T03:41:24.988Z,13.27
2018-07-15T03:42:24.902Z,13.37
2018-07-15T03:43:24.805Z,13.28
2018-07-15T03:44:24.702Z,13.39
2018-07-15T03:45:24.599Z,13.38
2018-07-15T03:46:24.502Z,13.38
2018-07-15T03:47:24.412Z,13.41
2018-07-15T03:48:24.305Z,13.41
2018-07-15T03:49:24.213Z,13.53
2018-07-15T03:50:24.105Z,13.49
2018-07-15T03:51:24.006Z,13.50
2018-07-15T03:52:23.921Z,13.53
2018-07-15T03:53:23.816Z,13.56
2018-07-15T03:54:23.722Z,13.63
2018-07-15T03:55:23.617Z,13.65
2018-07-15T03:56:23.524Z,13.77
2018-07-15T03:57:23.421Z,13.72
2018-07-15T03:58:23.333Z,13.72
2018-07-15T03:59:23.231Z,13.86
2018-07-15T04:00:23.126Z,13.92
2018-07-15T04:01:23.035Z,14.04
2018-07-15T04:02:22.939Z,14.12
2018-07-15T04:03:22.844Z,14.37
2018-07-15T04:04:22.739Z,14.35
2018-07-15T04:05:22.640Z,14.35
2018-07-15T04:06:22.541Z,14.50
2018-07-15T04:07:22.450Z,14.55
2018-07-15T04:08:22.411Z,14.59
2018-07-15T04:09:22.263Z,14.81
2018-07-15T04:10:22.155Z,14.73
2018-07-15T04:11:22.063Z,14.89
2018-07-15T04:12:21.958Z,15.09
2018-07-15T04:13:21.857Z,14.97
2018-07-15T04:14:21.769Z,15.19
2018-07-15T04:15:21.665Z,15.28
2018-07-15T04:16:21.576Z,15.28
2018-07-15T04:17:21.468Z,15.43
2018-07-15T04:18:21.380Z,15.49
2018-07-15T04:19:21.278Z,15.49
2018-07-15T04:20:21.189Z,15.47
2018-07-15T04:21:21.090Z,15.61
2018-07-15T04:22:20.990Z,15.59
2018-07-15T04:23:21.149Z,15.64
2018-07-15T04:24:20.798Z,15.79
2018-07-15T04:25:20.707Z,15.79
2018-07-15T04:26:20.600Z,15.77
2018-07-15T04:27:20.508Z,15.86
2018-07-15T04:28:20.441Z,15.84
2018-07-15T04:29:20.317Z,15.82
2018-07-15T04:30:20.221Z,15.95
2018-07-15T04:31:20.126Z,15.94
2018-07-15T04:32:20.020Z,16.04
2018-07-15T04:33:19.929Z,15.98
2018-07-15T04:34:19.841Z,16.12
2018-07-15T04:35:19.739Z,16.13
2018-07-15T04:36:19.647Z,16.24
2018-07-15T04:37:19.543Z,16.47
2018-07-15T04:38:19.447Z,16.61
2018-07-15T04:39:19.269Z,16.71
2018-07-15T04:40:19.172Z,16.91
2018-07-15T04:41:19.080Z,17.06
2018-07-15T04:42:18.974Z,17.52
2018-07-15T04:43:19.221Z,17.98
2018-07-15T04:44:18.867Z,18.44
2018-07-15T04:45:18.774Z,18.81
2018-07-15T04:46:18.688Z,19.04
2018-07-15T04:47:18.601Z,19.54
2018-07-15T04:48:18.489Z,19.59
2018-07-15T04:49:18.398Z,19.30
2018-07-15T04:50:18.299Z,19.27
2018-07-15T04:51:18.208Z,19.54
2018-07-15T04:52:18.121Z,19.89
2018-07-15T04:53:18.018Z,20.03
2018-07-15T04:54:17.922Z,19.56
2018-07-15T04:55:17.835Z,19.36
2018-07-15T04:56:17.742Z,19.12
2018-07-15T04:57:17.639Z,18.99
2018-07-15T04:58:17.794Z,18.90
2018-07-15T04:59:17.453Z,18.71
2018-07-15T05:00:17.364Z,18.81
2018-07-15T05:01:17.261Z,19.15
2018-07-15T05:02:17.173Z,19.27
2018-07-15T05:03:17.084Z,19.16
2018-07-15T05:04:16.992Z,19.16
2018-07-15T05:05:16.891Z,19.16
2018-07-15T05:06:16.796Z,19.44
2018-07-15T05:07:16.703Z,19.70
2018-07-15T05:08:16.610Z,20.03
2018-07-15T05:09:16.520Z,20.44
2018-07-15T05:10:16.420Z,20.92
2018-07-15T05:11:16.342Z,20.93
2018-07-15T05:12:16.243Z,21.29
2018-07-15T05:13:16.146Z,21.03
2018-07-15T05:14:16.059Z,21.22
2018-07-15T05:15:15.957Z,21.54
2018-07-15T05:16:15.863Z,21.29
2018-07-15T05:17:15.772Z,21.46
2018-07-15T05:18:15.680Z,21.42
2018-07-15T05:19:15.588Z,21.80
2018-07-15T05:20:15.500Z,21.92
2018-07-15T05:21:15.408Z,22.04
2018-07-15T05:22:15.314Z,21.48
2018-07-15T05:23:15.211Z,21.82
2018-07-15T05:24:15.135Z,22.07
2018-07-15T05:25:15.033Z,22.08
2018-07-15T05:26:14.945Z,22.47
2018-07-15T05:27:14.854Z,22.55
2018-07-15T05:28:14.756Z,22.63
2018-07-15T05:29:14.666Z,22.55
2018-07-15T05:30:14.578Z,22.84
2018-07-15T05:31:14.492Z,22.88
2018-07-15T05:32:14.400Z,23.05
2018-07-15T05:33:14.310Z,23.17
2018-07-15T05:34:14.216Z,23.27
2018-07-15T05:35:14.124Z,23.43
2018-07-15T05:36:14.037Z,22.73
2018-07-15T05:37:13.945Z,23.00
2018-07-15T05:38:13.851Z,23.28
2018-07-15T05:39:13.760Z,23.68
2018-07-15T05:40:13.667Z,23.81
2018-07-15T05:41:13.577Z,24.02
2018-07-15T05:42:13.489Z,24.06
2018-07-15T05:43:13.400Z,24.33
2018-07-15T05:44:13.351Z,24.32
2018-07-15T05:45:13.215Z,23.88
2018-07-15T05:46:13.132Z,23.87
2018-07-15T05:47:13.039Z,24.01
2018-07-15T05:48:12.946Z,24.03
2018-07-15T05:49:12.866Z,23.95
2018-07-15T05:50:12.773Z,24.02
2018-07-15T05:51:12.680Z,24.01
2018-07-15T05:52:12.595Z,24.14
2018-07-15T05:53:12.502Z,24.47
2018-07-15T05:54:12.409Z,24.50
2018-07-15T05:55:12.321Z,24.50
2018-07-15T05:56:12.229Z,24.53
2018-07-15T05:57:12.150Z,24.68
2018-07-15T05:58:12.064Z,24.73
2018-07-15T05:59:11.973Z,25.11
2018-07-15T06:00:11.877Z,25.51
2018-07-15T06:01:11.786Z,25.95
2018-07-15T06:02:11.698Z,26.02
2018-07-15T06:03:11.620Z,26.26
2018-07-15T06:04:11.532Z,25.99
2018-07-15T06:05:11.441Z,25.75
2018-07-15T06:06:11.346Z,26.10
2018-07-15T06:07:11.257Z,25.96
2018-07-15T06:08:11.178Z,25.73
2018-07-15T06:09:11.088Z,25.93
2018-07-15T06:10:10.993Z,26.09
2018-07-15T06:11:10.903Z,25.60
2018-07-15T06:12:10.826Z,25.44
2018-07-15T06:13:10.735Z,25.84
2018-07-15T06:14:10.651Z,25.69
2018-07-15T06:15:10.570Z,26.02
2018-07-15T06:16:10.472Z,26.58
2018-07-15T06:17:10.431Z,26.90
2018-07-15T06:18:10.300Z,26.84
2018-07-15T06:19:10.219Z,27.20
2018-07-15T06:20:10.129Z,27.49
2018-07-15T06:21:10.038Z,27.75
2018-07-15T06:22:09.957Z,27.39
2018-07-15T06:23:09.778Z,27.15
2018-07-15T06:24:09.702Z,27.12
2018-07-15T06:25:09.612Z,27.47
2018-07-15T06:26:09.520Z,26.96
2018-07-15T06:27:09.429Z,26.92
2018-07-15T06:28:09.345Z,26.40
2018-07-15T06:29:09.256Z,26.59
2018-07-15T06:30:09.181Z,26.92
2018-07-15T06:31:09.093Z,27.30
2018-07-15T06:32:08.998Z,27.03
2018-07-15T06:33:09.169Z,27.29
2018-07-15T06:34:08.831Z,26.70
2018-07-15T06:35:08.743Z,26.31
2018-07-15T06:36:08.665Z,26.66
2018-07-15T06:37:08.570Z,25.96
2018-07-15T06:38:08.487Z,26.36
2018-07-15T06:39:08.397Z,26.80
2018-07-15T06:40:08.311Z,26.78
2018-07-15T06:41:08.231Z,26.23
2018-07-15T06:42:08.137Z,26.58
2018-07-15T06:43:08.059Z,26.75
2018-07-15T06:44:07.969Z,26.81
2018-07-15T06:45:07.894Z,26.68
2018-07-15T06:46:07.805Z,26.13
2018-07-15T06:47:07.714Z,26.16
2018-07-15T06:48:07.629Z,26.53
2018-07-15T06:49:07.564Z,26.56
2018-07-15T06:50:07.465Z,26.56
2018-07-15T06:51:07.373Z,26.07
2018-07-15T06:52:07.297Z,26.37
2018-07-15T06:53:07.207Z,26.40
2018-07-15T06:54:07.160Z,26.45
2018-07-15T06:55:07.033Z,26.88
2018-07-15T06:56:06.947Z,27.40
2018-07-15T06:57:06.861Z,27.36
2018-07-15T06:58:06.773Z,27.67
2018-07-15T06:59:06.694Z,27.82
2018-07-15T07:00:06.603Z,27.78
2018-07-15T07:01:06.524Z,27.68
2018-07-15T07:02:06.437Z,27.73
2018-07-15T07:03:06.347Z,27.55
2018-07-15T07:04:06.267Z,27.71
2018-07-15T07:05:06.176Z,27.14
2018-07-15T07:06:06.101Z,26.97
2018-07-15T07:07:06.033Z,27.00
2018-07-15T07:08:05.931Z,26.78
2018-07-15T07:09:05.841Z,26.68
2018-07-15T07:10:05.757Z,26.78
2018-07-15T07:11:05.667Z,26.68
2018-07-15T07:12:05.588Z,26.89
2018-07-15T07:13:05.496Z,27.17
2018-07-15T07:14:05.486Z,27.20
2018-07-15T07:15:05.332Z,26.75
2018-07-15T07:16:05.256Z,26.80
2018-07-15T07:17:05.168Z,27.37
2018-07-15T07:18:05.082Z,27.22
2018-07-15T07:19:04.993Z,27.30
2018-07-15T07:20:04.917Z,27.98
2018-07-15T07:21:04.825Z,28.17
2018-07-15T07:22:04.742Z,28.42
2018-07-15T07:23:04.903Z,28.75
2018-07-15T07:24:04.576Z,29.12
2018-07-15T07:25:04.485Z,28.79
2018-07-15T07:26:04.409Z,28.79
2018-07-15T07:27:04.332Z,27.89
2018-07-15T07:28:04.240Z,27.67
2018-07-15T07:29:04.159Z,25.98
2018-07-15T07:30:04.072Z,26.13
2018-07-15T07:31:03.993Z,26.60
2018-07-15T07:32:03.912Z,26.97
2018-07-15T07:33:03.823Z,26.66
2018-07-15T07:34:03.728Z,26.75
2018-07-15T07:35:03.649Z,26.80
2018-07-15T07:36:03.578Z,27.07
2018-07-15T07:37:03.487Z,25.85
2018-07-15T07:38:03.404Z,25.81
2018-07-15T07:39:03.312Z,26.81
2018-07-15T07:40:03.233Z,27.39
2018-07-15T07:41:03.142Z,27.90
2018-07-15T07:42:03.059Z,27.52
2018-07-15T07:43:03.276Z,27.07
2018-07-15T07:44:02.894Z,27.37
2018-07-15T07:45:02.804Z,27.18
2018-07-15T07:46:02.739Z,27.55
2018-07-15T07:47:02.682Z,27.49
2018-07-15T07:48:02.565Z,28.27
2018-07-15T07:49:02.472Z,28.37
2018-07-15T07:50:02.391Z,27.39
2018-07-15T07:51:02.299Z,26.13
2018-07-15T07:52:02.222Z,25.81
2018-07-15T07:53:02.148Z,26.73
2018-07-15T07:54:02.051Z,27.07
2018-07-15T07:55:01.971Z,27.29
2018-07-15T07:56:01.896Z,27.73
2018-07-15T07:57:01.803Z,26.70
2018-07-15T07:58:01.717Z,25.54
2018-07-15T07:59:01.642Z,26.65
2018-07-15T08:00:01.545Z,27.20
2018-07-15T08:01:01.464Z,26.77
2018-07-15T08:02:01.502Z,27.10
2018-07-15T08:03:01.301Z,27.47
2018-07-15T08:04:01.210Z,27.93
2018-07-15T08:05:01.128Z,28.37
2018-07-15T08:06:01.034Z,28.44
2018-07-15T08:07:00.956Z,28.60
2018-07-15T08:08:00.872Z,28.72
2018-07-15T08:09:00.793Z,28.22
2018-07-15T08:10:00.698Z,27.89
2018-07-15T08:11:00.621Z,27.55
2018-07-15T08:12:00.528Z,26.36
2018-07-15T08:13:00.447Z,26.18
2018-07-15T08:14:00.362Z,25.63
2018-07-15T08:15:00.283Z,25.33
2018-07-15T08:16:00.192Z,25.78
2018-07-15T08:17:00.112Z,26.26
2018-07-15T08:18:00.030Z,26.78
2018-07-15T08:18:59.947Z,27.47
2018-07-15T08:19:59.854Z,27.93
2018-07-15T08:20:59.775Z,27.55
2018-07-15T08:21:59.769Z,27.25
2018-07-15T08:22:59.926Z,26.48
2018-07-15T08:23:59.594Z,25.99
2018-07-15T08:24:59.516Z,26.02
2018-07-15T08:25:59.432Z,25.78
2018-07-15T08:26:59.330Z,26.26
2018-07-15T08:27:59.248Z,26.97
2018-07-15T08:28:59.157Z,26.92
2018-07-15T08:29:59.071Z,26.34
2018-07-15T08:30:58.979Z,25.54
2018-07-15T08:31:58.897Z,24.98
2018-07-15T08:32:58.807Z,24.47
2018-07-15T08:33:58.720Z,25.01
2018-07-15T08:34:58.665Z,26.05
2018-07-15T08:35:58.541Z,26.78
2018-07-15T08:36:58.462Z,27.54
2018-07-15T08:37:58.368Z,27.33
2018-07-15T08:38:58.276Z,26.90
2018-07-15T08:39:58.189Z,26.47
2018-07-15T08:40:58.096Z,25.81
2018-07-15T08:41:58.003Z,25.31
2018-07-15T08:42:58.174Z,25.26
2018-07-15T08:43:57.835Z,26.19
2018-07-15T08:44:57.745Z,26.51
2018-07-15T08:45:57.689Z,28.02
2018-07-15T08:46:57.567Z,27.02
2018-07-15T08:47:57.471Z,26.23
2018-07-15T08:48:57.381Z,25.88
2018-07-15T08:49:57.307Z,25.26
2018-07-15T08:50:57.229Z,24.76
2018-07-15T08:51:57.126Z,24.14
2018-07-15T08:52:57.033Z,23.77
2018-07-15T08:53:56.939Z,23.37
2018-07-15T08:54:56.848Z,23.21
2018-07-15T08:55:56.774Z,23.58
2018-07-15T08:56:56.685Z,24.68
2018-07-15T08:57:56.588Z,25.25
2018-07-15T08:58:56.499Z,26.31
2018-07-15T08:59:56.419Z,26.85
2018-07-15T09:00:56.315Z,27.40
2018-07-15T09:01:56.228Z,27.82
2018-07-15T09:02:56.149Z,28.10
2018-07-15T09:03:56.055Z,28.74
2018-07-15T09:04:55.963Z,29.19
2018-07-15T09:05:55.877Z,29.57
2018-07-15T09:06:55.799Z,29.86
2018-07-15T09:07:55.710Z,30.27
2018-07-15T09:08:55.631Z,30.32
2018-07-15T09:09:55.536Z,30.43
2018-07-15T09:10:55.445Z,30.63
2018-07-15T09:11:55.369Z,30.09
2018-07-15T09:12:55.279Z,29.38
2018-07-15T09:13:55.197Z,29.81
2018-07-15T09:14:55.105Z,29.42
2018-07-15T09:15:55.029Z,29.76
2018-07-15T09:16:54.941Z,29.51
2018-07-15T09:17:54.867Z,28.86
2018-07-15T09:18:54.776Z,27.63
2018-07-15T09:19:54.695Z,28.10
2018-07-15T09:20:54.616Z,27.73
2018-07-15T09:21:54.556Z,27.87
2018-07-15T09:22:54.444Z,27.68
2018-07-15T09:23:54.350Z,27.60
2018-07-15T09:24:54.272Z,28.00
2018-07-15T09:25:54.186Z,28.29
2018-07-15T09:26:54.108Z,28.74
2018-07-15T09:27:54.030Z,28.47
2018-07-15T09:28:53.937Z,28.56
2018-07-15T09:29:53.862Z,28.63
2018-07-15T09:30:53.784Z,28.20
2018-07-15T09:31:53.701Z,28.32
2018-07-15T09:32:53.613Z,28.07
2018-07-15T09:33:53.530Z,28.60
2018-07-15T09:34:53.439Z,28.69
2018-07-15T09:35:53.367Z,28.70
2018-07-15T09:36:53.287Z,29.07
2018-07-15T09:37:53.192Z,29.59
2018-07-15T09:38:53.114Z,29.54
2018-07-15T09:39:53.037Z,29.51
2018-07-15T09:40:52.959Z,29.31
2018-07-15T09:41:52.873Z,28.88
2018-07-15T09:42:53.043Z,28.98
2018-07-15T09:43:52.709Z,29.20
2018-07-15T09:44:52.631Z,29.32
2018-07-15T09:45:52.558Z,29.38
2018-07-15T09:46:52.478Z,28.63
2018-07-15T09:47:52.390Z,29.13
2018-07-15T09:48:52.312Z,29.68
2018-07-15T09:49:52.229Z,30.25
2018-07-15T09:50:52.151Z,29.95
2018-07-15T09:51:52.077Z,30.05
2018-07-15T09:52:51.986Z,30.63
2018-07-15T09:53:51.904Z,30.72
2018-07-15T09:54:51.825Z,30.73
2018-07-15T09:55:51.745Z,30.70
2018-07-15T09:56:51.666Z,30.50
2018-07-15T09:57:51.592Z,29.38
2018-07-15T09:58:51.513Z,28.76
2018-07-15T09:59:51.422Z,29.47
2018-07-15T10:00:51.343Z,30.31
2018-07-15T10:01:51.269Z,30.02
2018-07-15T10:02:51.191Z,30.02
2018-07-15T10:03:51.113Z,30.25
2018-07-15T10:04:51.022Z,30.10
2018-07-15T10:05:50.938Z,28.91
2018-07-15T10:06:50.858Z,28.15
2018-07-15T10:07:50.785Z,28.82
2018-07-15T10:08:50.706Z,29.69
2018-07-15T10:09:50.620Z,29.73
2018-07-15T10:10:50.534Z,29.17
2018-07-15T10:11:50.458Z,29.32
2018-07-15T10:12:50.383Z,29.73
2018-07-15T10:13:50.292Z,30.18
2018-07-15T10:14:50.213Z,30.61
2018-07-15T10:15:50.130Z,29.94
2018-07-15T10:16:50.050Z,29.36
2018-07-15T10:17:50.226Z,29.53
2018-07-15T10:18:49.899Z,29.50
2018-07-15T10:19:49.810Z,29.86
2018-07-15T10:20:49.734Z,29.76
2018-07-15T10:21:49.649Z,30.15
2018-07-15T10:22:49.625Z,30.66
2018-07-15T10:23:49.504Z,30.44
2018-07-15T10:24:49.416Z,30.21
2018-07-15T10:25:49.333Z,30.40
2018-07-15T10:26:49.256Z,31.05
2018-07-15T10:27:49.178Z,31.28
2018-07-15T10:28:49.100Z,30.97
2018-07-15T10:29:49.016Z,30.88
2018-07-15T10:30:48.936Z,31.59
2018-07-15T10:31:48.851Z,31.44
2018-07-15T10:32:48.776Z,31.49
2018-07-15T10:33:48.698Z,31.40
2018-07-15T10:34:48.633Z,30.77
2018-07-15T10:35:48.545Z,31.00
2018-07-15T10:36:48.479Z,31.47
2018-07-15T10:37:48.395Z,32.19
2018-07-15T10:38:48.318Z,32.23
2018-07-15T10:39:48.242Z,32.55
2018-07-15T10:40:48.164Z,30.97
2018-07-15T10:41:48.083Z,30.27
2018-07-15T10:42:48.006Z,29.34
2018-07-15T10:43:47.924Z,27.73
2018-07-15T10:44:47.845Z,27.11
2018-07-15T10:45:47.784Z,27.36
2018-07-15T10:46:47.705Z,28.07
2018-07-15T10:47:47.624Z,28.07
2018-07-15T10:48:47.546Z,27.95
2018-07-15T10:49:47.471Z,28.33
2018-07-15T10:50:47.394Z,28.79
2018-07-15T10:51:47.315Z,29.20
2018-07-15T10:52:47.299Z,29.60
2018-07-15T10:53:47.153Z,30.59
2018-07-15T10:54:47.073Z,31.77
2018-07-15T10:55:46.999Z,31.89
2018-07-15T10:56:46.921Z,32.29
2018-07-15T10:57:46.839Z,33.11
2018-07-15T10:58:46.760Z,33.50
2018-07-15T10:59:46.696Z,33.79
2018-07-15T11:00:46.606Z,33.40
2018-07-15T11:01:46.532Z,33.84
2018-07-15T11:02:46.457Z,34.39
2018-07-15T11:03:46.369Z,34.20
2018-07-15T11:04:46.291Z,33.58
2018-07-15T11:05:46.216Z,33.01
2018-07-15T11:06:46.138Z,33.00
2018-07-15T11:07:46.062Z,32.59
2018-07-15T11:08:45.983Z,32.30
2018-07-15T11:09:45.901Z,32.70
2018-07-15T11:10:45.823Z,32.40
2018-07-15T11:11:45.762Z,31.81
2018-07-15T11:12:45.684Z,31.17
2018-07-15T11:13:45.601Z,30.63
2018-07-15T11:14:45.521Z,31.10
2018-07-15T11:15:45.443Z,31.56
2018-07-15T11:16:45.366Z,30.69
2018-07-15T11:17:45.289Z,29.26
2018-07-15T11:18:45.211Z,28.89
2018-07-15T11:19:45.133Z,29.98
2018-07-15T11:20:45.041Z,30.09
2018-07-15T11:21:44.965Z,29.94
2018-07-15T11:22:44.886Z,29.66
2018-07-15T11:23:44.806Z,30.34
2018-07-15T11:24:44.740Z,30.90
2018-07-15T11:25:44.646Z,31.62
2018-07-15T11:26:44.567Z,31.59
2018-07-15T11:27:44.495Z,31.73
2018-07-15T11:28:44.416Z,32.34
2018-07-15T11:29:44.334Z,32.82
2018-07-15T11:30:44.320Z,32.56
2018-07-15T11:31:44.175Z,31.74
2018-07-15T11:32:44.086Z,32.23
2018-07-15T11:33:44.012Z,32.11
2018-07-15T11:34:43.934Z,30.97
2018-07-15T11:35:43.853Z,29.76
2018-07-15T11:36:43.777Z,29.41
2018-07-15T11:37:43.950Z,29.04
2018-07-15T11:38:43.622Z,29.35
2018-07-15T11:39:43.542Z,29.60
2018-07-15T11:40:43.464Z,30.00
2018-07-15T11:41:43.381Z,29.42
2018-07-15T11:42:43.305Z,29.34
2018-07-15T11:43:43.142Z,29.34
2018-07-15T11:44:43.062Z,29.44
2018-07-15T11:45:43.073Z,29.63
2018-07-15T11:46:42.990Z,29.42
2018-07-15T11:47:42.901Z,29.01
2018-07-15T11:48:42.823Z,29.01
2018-07-15T11:49:42.750Z,27.93
2018-07-15T11:50:42.669Z,28.48
2018-07-15T11:51:42.585Z,28.52
2018-07-15T11:52:42.506Z,28.66
2018-07-15T11:53:42.420Z,28.49
2018-07-15T11:54:42.343Z,28.20
2018-07-15T11:55:42.267Z,27.36
2018-07-15T11:56:42.174Z,27.68
2018-07-15T11:57:42.092Z,27.42
2018-07-15T11:58:42.002Z,26.90
2018-07-15T11:59:41.927Z,26.71
2018-07-15T12:00:41.850Z,27.22
2018-07-15T12:01:41.788Z,28.01
2018-07-15T12:02:41.914Z,28.79
2018-07-15T12:03:41.584Z,29.45
2018-07-15T12:04:41.492Z,29.98
2018-07-15T12:05:41.421Z,30.25
2018-07-15T12:06:41.328Z,30.37
2018-07-15T12:07:41.249Z,29.04
2018-07-15T12:08:41.155Z,28.54
2018-07-15T12:09:41.080Z,28.60
2018-07-15T12:10:40.992Z,28.14
2018-07-15T12:11:40.903Z,27.65
2018-07-15T12:12:40.820Z,26.66
2018-07-15T12:13:40.725Z,26.51
2018-07-15T12:14:40.647Z,26.51
2018-07-15T12:15:40.564Z,26.45
2018-07-15T12:16:40.481Z,26.55
2018-07-15T12:17:40.388Z,26.29
2018-07-15T12:18:40.312Z,26.02
2018-07-15T12:19:40.219Z,26.10
2018-07-15T12:20:40.141Z,26.10
2018-07-15T12:21:40.056Z,26.13
2018-07-15T12:22:40.227Z,26.19
2018-07-15T12:23:39.879Z,26.28
2018-07-15T12:24:39.801Z,26.25
2018-07-15T12:25:39.727Z,26.06
2018-07-15T12:26:39.636Z,26.21
2018-07-15T12:27:39.561Z,26.23
2018-07-15T12:28:39.467Z,26.03
2018-07-15T12:29:39.386Z,25.75
2018-07-15T12:30:39.296Z,25.77
2018-07-15T12:31:39.220Z,25.87
2018-07-15T12:32:39.054Z,25.70
2018-07-15T12:33:38.958Z,25.63
2018-07-15T12:34:38.868Z,25.65
2018-07-15T12:35:38.879Z,25.62
2018-07-15T12:36:38.787Z,25.48
2018-07-15T12:37:38.951Z,25.51
2018-07-15T12:38:38.627Z,25.44
2018-07-15T12:39:38.525Z,25.59
2018-07-15T12:40:38.436Z,25.60
2018-07-15T12:41:38.363Z,25.65
2018-07-15T12:42:38.272Z,25.60
2018-07-15T12:43:38.186Z,25.50
2018-07-15T12:44:38.105Z,25.48
2018-07-15T12:45:38.009Z,25.40
2018-07-15T12:46:37.919Z,25.38
2018-07-15T12:47:37.847Z,25.29
2018-07-15T12:48:37.755Z,25.31
2018-07-15T12:49:37.659Z,25.17
2018-07-15T12:50:37.568Z,24.96
2018-07-15T12:51:37.487Z,24.95